Time;durP1;ratioP1;P1;durP2;ratioP2;P2;SDS_P1;SDS_P2;PMS_P1;PMS_P2;Temp;Humidity;BMP_temperature;BMP_pressure;BME280_temperature;BME280_humidity;BME280_pressure;Samples;Min_cycle;Max_cycle;Signal;HPM_P1;HPM_P2
2021/11/30 00:00:45;;;;;;;0.55;0.20;;;11.10;70.70;;;;;;5058494;28;20087;-82
2021/11/30 00:03:11;;;;;;;0.40;0.30;;;11.00;70.70;;;;;;5056350;28;20503;-82
2021/11/30 00:05:37;;;;;;;0.40;0.40;;;11.00;70.70;;;;;;5057521;28;20037;-81
2021/11/30 00:08:03;;;;;;;0.20;0.20;;;11.00;70.80;;;;;;5058898;28;20071;-80
2021/11/30 00:10:47;;;;;;;0.68;0.32;;;11.00;70.90;;;;;;5058736;28;20471;-80
2021/11/30 00:13:19;;;;;;;0.25;0.25;;;11.00;70.90;;;;;;5057307;28;20525;-84
2021/11/30 00:15:47;;;;;;;0.82;0.35;;;11.10;71.00;;;;;;5056704;28;20032;-84
2021/11/30 00:18:14;;;;;;;0.20;0.20;;;11.10;71.20;;;;;;5058049;28;20064;-81
2021/11/30 00:20:41;;;;;;;0.38;0.30;;;11.00;71.10;;;;;;5055986;28;20487;-83
2021/11/30 00:23:09;;;;;;;0.32;0.20;;;11.00;71.30;;;;;;5058390;28;20163;-83
2021/11/30 00:25:35;;;;;;;0.28;0.25;;;11.00;71.30;;;;;;5057565;28;20039;-82
2021/11/30 00:28:02;;;;;;;0.40;0.30;;;11.00;71.30;;;;;;5043926;28;20037;-82
2021/11/30 00:30:30;;;;;;;1.65;0.20;;;11.00;71.30;;;;;;5029773;28;20029;-82
2021/11/30 00:32:56;;;;;;;0.50;0.22;;;11.00;71.20;;;;;;5059268;28;20064;-84
2021/11/30 00:35:22;;;;;;;0.30;0.20;;;11.10;71.40;;;;;;5056677;28;20127;-84
2021/11/30 00:37:49;;;;;;;0.50;0.30;;;11.00;71.30;;;;;;5057772;28;20037;-82
2021/11/30 00:40:15;;;;;;;0.50;0.40;;;11.00;71.50;;;;;;5058472;28;20033;-83
2021/11/30 00:42:41;;;;;;;1.10;0.25;;;11.00;71.50;;;;;;5057938;28;20028;-83
2021/11/30 00:45:09;;;;;;;0.40;0.25;;;11.00;71.60;;;;;;5038874;28;20170;-83
2021/11/30 00:47:45;;;;;;;0.10;0.10;;;11.00;71.70;;;;;;5058080;28;20074;-84
2021/11/30 00:50:12;;;;;;;0.40;0.30;;;11.00;71.70;;;;;;5057854;28;20070;-81
2021/11/30 00:52:38;;;;;;;0.65;0.30;;;11.00;71.80;;;;;;5058329;28;20525;-81
2021/11/30 00:55:05;;;;;;;1.02;0.40;;;11.00;71.80;;;;;;5056314;28;20041;-82
2021/11/30 00:57:32;;;;;;;0.60;0.30;;;11.00;71.90;;;;;;5039359;28;20064;-81
2021/11/30 00:59:57;;;;;;;0.30;0.20;;;11.00;72.00;;;;;;5057468;28;20033;-82
2021/11/30 01:02:23;;;;;;;0.20;0.20;;;11.00;72.00;;;;;;5056381;28;20082;-82
2021/11/30 01:04:50;;;;;;;0.50;0.20;;;11.00;72.10;;;;;;5056758;28;20028;-82
2021/11/30 01:07:15;;;;;;;1.27;0.68;;;11.00;72.10;;;;;;5056690;28;20029;-82
2021/11/30 01:09:42;;;;;;;0.50;0.30;;;11.00;72.10;;;;;;5057011;28;20036;-82
2021/11/30 01:12:10;;;;;;;0.68;0.68;;;11.00;72.30;;;;;;5057849;28;20032;-81
2021/11/30 01:14:36;;;;;;;1.30;1.20;;;11.00;72.40;;;;;;5057114;28;20437;-81
2021/11/30 01:17:02;;;;;;;2.88;1.98;;;11.00;72.40;;;;;;5044072;28;20036;-82
2021/11/30 01:19:28;;;;;;;2.90;2.70;;;11.00;72.50;;;;;;5056655;28;20036;-82
2021/11/30 01:21:54;;;;;;;3.38;3.08;;;11.00;72.50;;;;;;5056242;28;20032;-82
2021/11/30 01:24:20;;;;;;;3.42;3.13;;;11.00;72.50;;;;;;5038186;28;20032;-82
2021/11/30 01:26:46;;;;;;;3.53;3.22;;;11.00;72.50;;;;;;5039914;28;20033;-81
2021/11/30 01:29:12;;;;;;;3.47;3.17;;;11.00;72.60;;;;;;5056317;28;20037;-81
2021/11/30 01:31:38;;;;;;;3.85;3.40;;;11.00;72.60;;;;;;5056451;28;20091;-82
2021/11/30 01:34:04;;;;;;;3.42;3.08;;;11.00;72.70;;;;;;5057284;28;20039;-81
2021/11/30 01:36:30;;;;;;;3.13;2.38;;;11.00;72.70;;;;;;5053975;28;20042;-81
2021/11/30 01:39:00;;;;;;;3.00;2.00;;;11.00;72.70;;;;;;5056813;28;20071;-83
2021/11/30 01:41:26;;;;;;;1.60;1.50;;;11.10;72.70;;;;;;5039163;28;20028;-81
2021/11/30 01:43:53;;;;;;;1.40;1.10;;;11.10;72.90;;;;;;5054172;28;20028;-80
2021/11/30 01:46:28;;;;;;;0.70;0.65;;;11.10;73.00;;;;;;5054849;28;20033;-82
2021/11/30 01:51:40;;;;;;;0.70;0.70;;;11.10;72.90;;;;;;5054450;28;20036;-81
2021/11/30 01:54:06;;;;;;;1.58;0.82;;;11.10;73.00;;;;;;5054758;28;20053;-82
2021/11/30 01:56:32;;;;;;;0.82;0.52;;;11.10;73.10;;;;;;5056856;28;20033;-82
2021/11/30 01:58:58;;;;;;;0.60;0.60;;;11.10;73.40;;;;;;5056279;28;20036;-82
2021/11/30 02:01:24;;;;;;;0.73;0.60;;;11.10;73.40;;;;;;5042413;28;20044;-81
2021/11/30 02:03:50;;;;;;;0.60;0.60;;;11.10;73.70;;;;;;5056391;28;21107;-81
2021/11/30 02:06:16;;;;;;;0.63;0.50;;;11.10;73.80;;;;;;5056877;28;20487;-81
2021/11/30 02:08:42;;;;;;;0.70;0.70;;;11.10;74.00;;;;;;5055045;28;20029;-81
2021/11/30 02:11:08;;;;;;;0.60;0.60;;;11.10;73.80;;;;;;5054902;28;20033;-81
2021/11/30 02:13:34;;;;;;;0.60;0.60;;;11.10;73.70;;;;;;5041400;28;20680;-83
2021/11/30 02:16:02;;;;;;;0.68;0.68;;;11.10;73.70;;;;;;5037784;28;20499;-81
2021/11/30 02:18:29;;;;;;;0.70;0.70;;;11.20;73.90;;;;;;5037097;28;20037;-80
2021/11/30 02:20:58;;;;;;;0.60;0.60;;;11.20;73.80;;;;;;5056503;28;20128;-81
2021/11/30 02:23:37;;;;;;;0.63;0.63;;;11.20;74.00;;;;;;5056889;28;20124;-81
2021/11/30 02:26:11;;;;;;;0.50;0.50;;;11.20;73.80;;;;;;5037321;28;20020;-81
2021/11/30 02:28:40;;;;;;;0.70;0.70;;;11.20;73.90;;;;;;5054941;28;20090;-81
2021/11/30 02:31:07;;;;;;;0.60;0.60;;;11.20;73.90;;;;;;5056674;28;20564;-81
2021/11/30 02:33:34;;;;;;;0.43;0.43;;;11.20;74.10;;;;;;5056338;28;20035;-84
2021/11/30 02:36:00;;;;;;;0.50;0.50;;;11.30;73.90;;;;;;5041593;28;20041;-83
2021/11/30 02:38:26;;;;;;;0.63;0.55;;;11.30;73.80;;;;;;5054821;28;20032;-83
2021/11/30 02:40:52;;;;;;;0.55;0.55;;;11.30;73.90;;;;;;5054499;28;20082;-81
2021/11/30 02:43:18;;;;;;;1.75;0.68;;;11.30;74.10;;;;;;5057291;28;20028;-81
2021/11/30 02:45:44;;;;;;;0.95;0.70;;;11.30;74.10;;;;;;5045215;28;20082;-81
2021/11/30 02:48:10;;;;;;;1.30;0.93;;;11.30;74.10;;;;;;5059772;28;20029;-80
2021/11/30 02:50:41;;;;;;;1.05;0.70;;;11.40;74.20;;;;;;5060090;28;20112;-85
2021/11/30 02:53:10;;;;;;;1.17;1.08;;;11.40;74.50;;;;;;5059504;28;20037;-83
2021/11/30 02:55:37;;;;;;;1.67;1.52;;;11.40;74.50;;;;;;5059708;28;20036;-84
2021/11/30 02:58:03;;;;;;;1.05;1.05;;;11.40;74.50;;;;;;5060189;28;20585;-83
2021/11/30 03:00:29;;;;;;;1.15;1.10;;;11.40;74.90;;;;;;5058523;28;20033;-81
2021/11/30 03:02:54;;;;;;;1.55;1.45;;;11.40;75.00;;;;;;5057262;28;20669;-82
2021/11/30 03:05:20;;;;;;;1.98;1.60;;;11.40;74.90;;;;;;5057384;28;20043;-80
2021/11/30 03:07:46;;;;;;;2.15;1.95;;;11.40;75.00;;;;;;5060754;28;20028;-81
2021/11/30 03:10:18;;;;;;;2.22;2.03;;;11.50;75.20;;;;;;5057576;28;20115;-81
2021/11/30 03:12:45;;;;;;;1.60;1.50;;;11.50;75.10;;;;;;5057667;28;20036;-81
2021/11/30 03:15:15;;;;;;;1.95;1.75;;;11.50;75.20;;;;;;5059352;28;20152;-82
2021/11/30 03:17:43;;;;;;;1.73;1.52;;;11.50;75.40;;;;;;5046644;28;20484;-84
2021/11/30 03:20:10;;;;;;;1.65;1.52;;;11.50;75.60;;;;;;5058409;28;20025;-82
2021/11/30 03:22:37;;;;;;;1.50;1.38;;;11.50;75.70;;;;;;5045579;28;20044;-83
2021/11/30 03:25:03;;;;;;;1.40;1.30;;;11.50;75.80;;;;;;5058350;28;20418;-83
2021/11/30 03:27:29;;;;;;;1.80;1.20;;;11.60;76.00;;;;;;5040346;28;20388;-83
2021/11/30 03:29:55;;;;;;;1.42;1.33;;;11.60;76.00;;;;;;5059098;28;20040;-89
2021/11/30 03:35:05;;;;;;;1.05;1.02;;;11.60;76.80;;;;;;5040951;28;20567;-90
2021/11/30 03:37:32;;;;;;;1.48;1.10;;;11.60;76.80;;;;;;5059588;28;20035;-87
2021/11/30 03:39:58;;;;;;;1.00;0.90;;;11.60;76.70;;;;;;5059324;28;20123;-90
2021/11/30 03:42:25;;;;;;;1.17;1.05;;;11.70;77.10;;;;;;5058484;28;20039;-89
2021/11/30 03:44:52;;;;;;;2.13;1.23;;;11.60;77.20;;;;;;5041151;28;21080;-90
2021/11/30 03:47:18;;;;;;;1.05;0.90;;;11.70;77.50;;;;;;5058038;28;20103;-90
2021/11/30 03:49:44;;;;;;;2.40;0.82;;;11.70;77.40;;;;;;5059943;28;20030;-91
2021/11/30 03:52:10;;;;;;;1.83;0.90;;;11.70;77.40;;;;;;5041057;28;20025;-89
2021/11/30 03:54:36;;;;;;;1.05;0.80;;;11.80;77.30;;;;;;5056402;28;20025;-87
2021/11/30 03:57:04;;;;;;;0.77;0.77;;;11.80;77.50;;;;;;5058174;28;20542;-87
2021/11/30 03:59:30;;;;;;;0.57;0.40;;;11.80;77.50;;;;;;5056168;28;20039;-87
2021/11/30 04:01:56;;;;;;;1.77;0.57;;;11.80;77.50;;;;;;5058239;28;20024;-88
2021/11/30 04:04:23;;;;;;;1.63;0.65;;;11.80;77.50;;;;;;5041880;28;20116;-85
2021/11/30 04:06:51;;;;;;;1.05;0.43;;;11.80;77.30;;;;;;5056407;28;20028;-85
2021/11/30 04:09:18;;;;;;;1.10;0.50;;;11.80;77.40;;;;;;5057215;28;20629;-84
2021/11/30 04:11:45;;;;;;;0.82;0.30;;;11.90;77.50;;;;;;5044794;28;20028;-86
2021/11/30 04:14:12;;;;;;;0.75;0.22;;;11.90;77.50;;;;;;5057672;28;20043;-85
2021/11/30 04:16:38;;;;;;;0.40;0.40;;;11.90;77.50;;;;;;5057965;28;20162;-86
2021/11/30 04:19:04;;;;;;;0.65;0.20;;;11.90;77.60;;;;;;5044701;28;20028;-86
2021/11/30 04:21:30;;;;;;;0.77;0.30;;;11.90;77.50;;;;;;5039560;28;20025;-86
2021/11/30 04:23:56;;;;;;;0.35;0.20;;;12.00;77.10;;;;;;5027714;28;20433;-88
2021/11/30 04:26:23;;;;;;;0.20;0.20;;;12.00;77.10;;;;;;5045100;28;20029;-82
2021/11/30 04:28:49;;;;;;;0.17;0.17;;;11.90;77.00;;;;;;5058216;28;20047;-81
2021/11/30 04:31:15;;;;;;;1.58;0.10;;;12.00;76.90;;;;;;5039575;28;20619;-81
2021/11/30 04:33:41;;;;;;;0.15;0.10;;;12.00;76.60;;;;;;5057223;28;20071;-83
2021/11/30 04:36:07;;;;;;;0.10;0.10;;;12.00;76.40;;;;;;5057442;28;20472;-81
2021/11/30 04:38:35;;;;;;;0.43;0.10;;;12.00;76.20;;;;;;5039689;28;20132;-79
2021/11/30 04:41:01;;;;;;;0.35;0.17;;;12.00;75.90;;;;;;5057846;28;20094;-88
2021/11/30 04:43:36;;;;;;;0.65;0.10;;;12.00;75.80;;;;;;5040832;28;20146;-87
2021/11/30 04:46:29;;;;;;;1.02;0.10;;;12.00;75.50;;;;;;5056368;28;20106;-88
2021/11/30 04:49:06;;;;;;;0.52;0.10;;;12.00;75.40;;;;;;5057029;28;20028;-82
2021/11/30 04:51:34;;;;;;;0.38;0.17;;;12.00;75.30;;;;;;5057479;28;20116;-83
2021/11/30 04:54:00;;;;;;;1.38;0.35;;;12.00;75.00;;;;;;5037530;28;20136;-82
2021/11/30 04:56:27;;;;;;;0.10;0.10;;;12.00;74.90;;;;;;5055919;28;20051;-81
2021/11/30 04:58:53;;;;;;;0.30;0.20;;;12.00;74.90;;;;;;5060612;28;20036;-82
2021/11/30 05:01:19;;;;;;;0.50;0.30;;;12.10;74.60;;;;;;5058879;28;20094;-82
2021/11/30 05:03:46;;;;;;;0.10;0.10;;;12.10;74.50;;;;;;5056918;28;20334;-83
2021/11/30 05:06:13;;;;;;;0.82;0.10;;;12.10;74.20;;;;;;5039897;28;20028;-83
2021/11/30 05:08:39;;;;;;;0.13;0.08;;;12.10;74.10;;;;;;5057041;28;20055;-82
2021/11/30 05:11:05;;;;;;;0.20;0.10;;;12.10;73.90;;;;;;5057742;28;20053;-81
2021/11/30 05:13:31;;;;;;;0.10;0.10;;;12.10;73.90;;;;;;5055836;28;20032;-81
2021/11/30 05:15:58;;;;;;;0.40;0.10;;;12.10;74.00;;;;;;5054924;28;20039;-82
2021/11/30 05:18:24;;;;;;;0.30;0.17;;;12.10;73.90;;;;;;5055825;28;20028;-83
2021/11/30 05:20:53;;;;;;;0.30;0.17;;;12.10;73.80;;;;;;5055550;28;20507;-81
2021/11/30 05:23:27;;;;;;;0.22;0.10;;;12.10;73.70;;;;;;5043631;28;20036;-82
2021/11/30 05:25:54;;;;;;;0.15;0.10;;;12.10;73.60;;;;;;5056709;28;20498;-81
2021/11/30 05:28:22;;;;;;;0.57;0.15;;;12.10;73.50;;;;;;5038104;28;20060;-82
2021/11/30 05:30:48;;;;;;;0.70;0.20;;;12.10;74.10;;;;;;5057735;28;20486;-82
2021/11/30 05:33:14;;;;;;;0.13;0.13;;;12.10;73.50;;;;;;5057124;28;20048;-80
2021/11/30 05:35:42;;;;;;;0.60;0.22;;;12.10;73.50;;;;;;5055004;28;20414;-86
2021/11/30 05:38:08;;;;;;;0.65;0.40;;;12.10;73.60;;;;;;5056937;28;20043;-85
2021/11/30 05:40:34;;;;;;;1.33;0.43;;;12.10;73.70;;;;;;5055269;28;20033;-84
2021/11/30 05:43:00;;;;;;;1.05;0.30;;;12.10;74.30;;;;;;5054962;28;20032;-87
2021/11/30 05:45:27;;;;;;;0.30;0.30;;;12.10;73.70;;;;;;5022328;28;20094;-86
2021/11/30 05:47:53;;;;;;;0.52;0.40;;;12.10;73.70;;;;;;5043942;28;20039;-86
2021/11/30 05:50:19;;;;;;;0.68;0.40;;;12.10;73.70;;;;;;5043732;28;20491;-87
2021/11/30 05:52:45;;;;;;;0.75;0.20;;;12.10;73.70;;;;;;5038766;28;20541;-85
2021/11/30 05:55:11;;;;;;;0.88;0.30;;;12.10;73.70;;;;;;5038221;28;20032;-88
2021/11/30 05:57:38;;;;;;;0.20;0.20;;;12.10;73.60;;;;;;5042662;28;20461;-86
2021/11/30 06:00:07;;;;;;;2.10;0.40;;;12.10;73.60;;;;;;5054074;28;20881;-84
2021/11/30 06:02:52;;;;;;;1.33;0.47;;;12.10;73.70;;;;;;5055545;28;20036;-86
2021/11/30 06:05:18;;;;;;;0.82;0.40;;;12.20;74.40;;;;;;5054809;28;20396;-86
2021/11/30 06:07:44;;;;;;;1.23;0.40;;;12.10;73.90;;;;;;5055914;28;20039;-84
2021/11/30 06:10:10;;;;;;;0.40;0.30;;;12.10;73.80;;;;;;5055185;28;20422;-85
2021/11/30 06:12:36;;;;;;;0.55;0.55;;;12.10;73.90;;;;;;5053989;28;20755;-85
2021/11/30 06:15:02;;;;;;;0.95;0.30;;;12.10;73.90;;;;;;5057755;28;20032;-87
2021/11/30 06:17:28;;;;;;;3.75;0.50;;;12.10;73.70;;;;;;5054529;28;20025;-85
2021/11/30 06:19:54;;;;;;;0.70;0.40;;;12.10;73.70;;;;;;5037578;28;20376;-86
2021/11/30 06:22:20;;;;;;;0.93;0.30;;;12.10;73.50;;;;;;5056006;28;20055;-85
2021/11/30 06:24:46;;;;;;;0.47;0.32;;;12.10;73.40;;;;;;5054998;28;20025;-84
2021/11/30 06:27:12;;;;;;;0.93;0.20;;;12.10;73.20;;;;;;5042704;28;20041;-85
2021/11/30 06:29:38;;;;;;;0.95;0.30;;;12.10;73.00;;;;;;5038258;28;20029;-85
2021/11/30 06:32:04;;;;;;;0.40;0.35;;;12.20;72.80;;;;;;5055221;28;20088;-83
2021/11/30 06:34:30;;;;;;;0.57;0.20;;;12.20;72.60;;;;;;5056019;28;20028;-85
2021/11/30 06:36:56;;;;;;;0.80;0.28;;;12.20;72.30;;;;;;5039947;28;20917;-85
2021/11/30 06:39:22;;;;;;;1.45;0.38;;;12.20;72.30;;;;;;5053854;28;20040;-85
2021/11/30 06:41:48;;;;;;;1.30;0.50;;;12.10;72.10;;;;;;5056243;28;20127;-84
2021/11/30 06:44:14;;;;;;;0.20;0.20;;;12.20;71.90;;;;;;5022451;28;20135;-84
2021/11/30 06:46:40;;;;;;;1.48;0.30;;;12.20;71.70;;;;;;5056391;28;20028;-84
2021/11/30 06:49:06;;;;;;;0.63;0.20;;;12.20;71.60;;;;;;5054859;28;20183;-83
2021/11/30 06:51:32;;;;;;;0.30;0.20;;;12.20;71.50;;;;;;5054416;28;20575;-82
2021/11/30 06:53:58;;;;;;;1.17;0.28;;;12.20;71.30;;;;;;5038187;28;20124;-85
2021/11/30 06:56:24;;;;;;;0.63;0.32;;;12.20;70.90;;;;;;5039007;28;20040;-84
2021/11/30 06:58:50;;;;;;;1.40;0.40;;;12.20;70.80;;;;;;5055938;28;20040;-85
2021/11/30 07:01:16;;;;;;;1.05;0.20;;;12.20;70.60;;;;;;5054398;28;20041;-85
2021/11/30 07:03:44;;;;;;;1.13;0.28;;;12.20;70.40;;;;;;5054996;28;20055;-85
2021/11/30 07:06:23;;;;;;;1.17;0.20;;;12.20;70.30;;;;;;5055878;28;20032;-86
2021/11/30 07:14:22;;;;;;;0.30;0.20;;;12.20;70.00;;;;;;5013654;28;20041;-85
2021/11/30 07:16:49;;;;;;;1.17;0.20;;;12.20;69.70;;;;;;5013044;28;20033;-86
2021/11/30 07:19:15;;;;;;;0.70;0.40;;;12.20;69.70;;;;;;5055373;28;20040;-86
2021/11/30 07:21:42;;;;;;;0.73;0.50;;;12.20;69.60;;;;;;5054802;28;20032;-84
2021/11/30 07:24:08;;;;;;;0.30;0.30;;;12.20;69.50;;;;;;5038151;28;20043;-87
2021/11/30 07:26:34;;;;;;;0.35;0.30;;;12.20;69.60;;;;;;5037611;28;20413;-87
2021/11/30 07:29:03;;;;;;;1.15;0.30;;;12.20;69.20;;;;;;5037706;28;20101;-85
2021/11/30 07:31:29;;;;;;;0.25;0.22;;;12.20;69.00;;;;;;5040309;28;20102;-91
2021/11/30 07:33:57;;;;;;;0.60;0.35;;;12.10;69.20;;;;;;5058299;28;20101;-86
2021/11/30 07:36:23;;;;;;;1.13;0.20;;;12.20;68.90;;;;;;5058033;28;20036;-85
2021/11/30 07:38:49;;;;;;;0.47;0.22;;;12.20;69.00;;;;;;5059771;28;20047;-86
2021/11/30 07:41:18;;;;;;;0.40;0.40;;;12.10;68.50;;;;;;5041910;28;20041;-86
2021/11/30 07:43:44;;;;;;;0.95;0.20;;;12.20;68.80;;;;;;5049162;28;20036;-83
2021/11/30 07:46:10;;;;;;;0.30;0.30;;;12.20;68.40;;;;;;5061510;28;20086;-87
2021/11/30 07:48:36;;;;;;;0.28;0.20;;;12.10;68.60;;;;;;5065878;28;20044;-84
2021/11/30 07:51:04;;;;;;;0.10;0.10;;;12.10;68.30;;;;;;5067004;28;20090;-81
2021/11/30 07:53:30;;;;;;;0.32;0.28;;;12.20;68.10;;;;;;5047970;28;20050;-84
2021/11/30 07:55:56;;;;;;;1.88;0.30;;;12.10;67.50;;;;;;5059994;28;20078;-84
2021/11/30 07:58:23;;;;;;;1.42;0.30;;;12.20;67.80;;;;;;5029795;28;20048;-82
2021/11/30 08:00:50;;;;;;;0.30;0.20;;;12.10;67.80;;;;;;5044285;28;20064;-81
2021/11/30 08:03:17;;;;;;;0.65;0.20;;;12.10;67.60;;;;;;5058375;28;20042;-84
2021/11/30 08:05:44;;;;;;;1.10;0.32;;;12.10;67.70;;;;;;5058777;28;20139;-83
2021/11/30 08:08:10;;;;;;;0.30;0.30;;;12.10;67.50;;;;;;5041024;28;20047;-79
2021/11/30 08:10:36;;;;;;;0.38;0.30;;;12.10;67.30;;;;;;5040503;28;20475;-81
2021/11/30 08:13:02;;;;;;;0.57;0.20;;;12.10;67.40;;;;;;5056939;28;20036;-80
2021/11/30 08:15:28;;;;;;;0.60;0.40;;;12.10;67.10;;;;;;5056739;28;20028;-83
2021/11/30 08:17:54;;;;;;;0.20;0.20;;;12.10;66.80;;;;;;5058123;28;20047;-84
2021/11/30 08:20:20;;;;;;;0.28;0.28;;;12.10;66.80;;;;;;5056611;28;20074;-81
2021/11/30 08:22:46;;;;;;;0.30;0.20;;;12.10;66.70;;;;;;5039765;28;20033;-81
2021/11/30 08:25:13;;;;;;;0.75;0.30;;;12.10;66.40;;;;;;5057742;28;20464;-84
2021/11/30 08:27:40;;;;;;;1.17;0.20;;;12.10;66.80;;;;;;5058205;28;20033;-81
2021/11/30 08:30:07;;;;;;;1.08;0.30;;;12.00;66.20;;;;;;5042550;28;20033;-89
2021/11/30 08:32:35;;;;;;;0.55;0.20;;;12.00;66.10;;;;;;5057716;28;20046;-85
2021/11/30 08:35:03;;;;;;;4.78;0.30;;;12.00;67.40;;;;;;5057728;28;20199;-83
2021/11/30 08:37:29;;;;;;;0.47;0.22;;;12.10;68.80;;;;;;5057558;28;20029;-83
2021/11/30 08:39:56;;;;;;;1.63;0.20;;;12.10;68.70;;;;;;5039782;28;20021;-85
2021/11/30 08:42:22;;;;;;;2.47;0.30;;;12.10;68.20;;;;;;5056399;28;20124;-84
2021/11/30 08:44:49;;;;;;;0.45;0.35;;;12.10;67.80;;;;;;5057052;28;20029;-82
2021/11/30 08:47:17;;;;;;;0.30;0.13;;;12.10;67.30;;;;;;5058797;28;20032;-84
2021/11/30 08:49:43;;;;;;;0.35;0.30;;;12.10;66.80;;;;;;5057183;28;21480;-87
2021/11/30 08:52:12;;;;;;;0.30;0.30;;;12.10;66.40;;;;;;5059027;28;20036;-82
2021/11/30 08:54:39;;;;;;;0.93;0.38;;;12.10;66.20;;;;;;5057233;28;20033;-86
2021/11/30 08:57:07;;;;;;;0.25;0.10;;;12.10;66.10;;;;;;5057577;28;20127;-82
2021/11/30 08:59:33;;;;;;;0.40;0.20;;;12.00;65.70;;;;;;5056570;28;20068;-83
2021/11/30 09:02:00;;;;;;;2.28;0.38;;;12.10;65.70;;;;;;5054962;28;20119;-82
2021/11/30 09:04:26;;;;;;;0.30;0.20;;;12.00;65.50;;;;;;5055362;28;20701;-82
2021/11/30 09:06:52;;;;;;;0.10;0.10;;;12.00;65.60;;;;;;5056666;28;20025;-81
2021/11/30 09:09:18;;;;;;;1.20;0.25;;;12.00;65.20;;;;;;5056228;28;20039;-80
2021/11/30 09:11:44;;;;;;;1.52;0.25;;;12.00;65.20;;;;;;5055540;28;20063;-82
2021/11/30 09:14:12;;;;;;;1.00;0.50;;;11.90;65.10;;;;;;5039418;28;20035;-83
2021/11/30 09:16:38;;;;;;;1.60;0.30;;;11.90;65.00;;;;;;5042802;28;20044;-84
2021/11/30 09:19:04;;;;;;;0.32;0.30;;;11.90;64.90;;;;;;5058356;28;20036;-86
2021/11/30 09:21:30;;;;;;;0.20;0.20;;;11.90;64.70;;;;;;5023119;28;20033;-86
2021/11/30 09:23:57;;;;;;;0.50;0.40;;;11.90;64.10;;;;;;5039681;28;20047;-87
2021/11/30 09:26:24;;;;;;;0.90;0.25;;;11.90;64.10;;;;;;5057387;28;20036;-85
2021/11/30 09:28:50;;;;;;;1.95;0.40;;;11.90;64.20;;;;;;5057376;28;20071;-81
2021/11/30 09:31:16;;;;;;;0.95;0.25;;;11.80;64.10;;;;;;5033885;28;20050;-84
2021/11/30 09:33:43;;;;;;;0.73;0.45;;;11.90;64.10;;;;;;5053535;28;20143;-83
2021/11/30 09:36:10;;;;;;;1.60;0.63;;;11.80;64.00;;;;;;5036123;28;20388;-83
2021/11/30 09:38:37;;;;;;;0.50;0.20;;;11.80;63.90;;;;;;5036508;28;20129;-83
2021/11/30 09:41:04;;;;;;;0.30;0.20;;;11.80;63.70;;;;;;5036405;28;20044;-82
2021/11/30 09:43:32;;;;;;;0.52;0.30;;;11.80;63.60;;;;;;5052067;28;20033;-82
2021/11/30 09:46:00;;;;;;;1.92;0.40;;;11.80;63.60;;;;;;5051552;28;20049;-83
2021/11/30 09:48:28;;;;;;;1.00;0.40;;;11.80;63.50;;;;;;5034884;28;20029;-83
2021/11/30 09:50:55;;;;;;;0.93;0.63;;;11.70;63.30;;;;;;5024311;28;20125;-82
2021/11/30 09:53:21;;;;;;;0.77;0.60;;;11.70;63.20;;;;;;5037662;28;20112;-80
2021/11/30 09:55:48;;;;;;;0.60;0.50;;;11.70;63.30;;;;;;5052311;28;20025;-80
2021/11/30 09:58:19;;;;;;;0.90;0.40;;;11.70;62.60;;;;;;5052009;28;20049;-80
2021/11/30 10:00:47;;;;;;;0.90;0.65;;;11.70;63.10;;;;;;5039277;28;20378;-81
2021/11/30 10:03:14;;;;;;;1.25;0.60;;;11.70;62.80;;;;;;5043710;28;20030;-80
2021/11/30 10:05:41;;;;;;;0.82;0.43;;;11.70;62.40;;;;;;5033426;28;20060;-81
2021/11/30 10:08:33;;;;;;;0.40;0.32;;;11.70;62.60;;;;;;5035602;28;20091;-80
2021/11/30 10:11:01;;;;;;;0.20;0.20;;;11.70;62.50;;;;;;5050117;28;20519;-81
2021/11/30 10:13:28;;;;;;;1.30;0.30;;;11.70;62.50;;;;;;5031523;28;20037;-80
2021/11/30 10:16:05;;;;;;;0.80;0.30;;;11.70;62.30;;;;;;5032365;28;20031;-81
2021/11/30 10:18:37;;;;;;;0.93;0.30;;;11.60;62.20;;;;;;5030415;28;20033;-81
2021/11/30 10:21:03;;;;;;;0.10;0.10;;;11.60;61.90;;;;;;5030894;28;20466;-80
2021/11/30 10:23:31;;;;;;;0.57;0.40;;;11.60;62.20;;;;;;5031397;28;20113;-81
2021/11/30 10:26:03;;;;;;;0.43;0.30;;;11.60;62.20;;;;;;5051581;28;20140;-81
2021/11/30 10:28:31;;;;;;;0.60;0.40;;;11.60;62.80;;;;;;5062759;28;20029;-81
2021/11/30 10:30:57;;;;;;;3.53;0.77;;;11.60;62.70;;;;;;5044509;28;20105;-81
2021/11/30 10:33:25;;;;;;;0.43;0.20;;;11.60;62.80;;;;;;4994845;28;20104;-80
2021/11/30 10:35:54;;;;;;;0.93;0.40;;;11.60;62.80;;;;;;5013918;28;20389;-81
2021/11/30 10:38:23;;;;;;;2.05;0.40;;;11.60;62.80;;;;;;5016273;28;20512;-81
2021/11/30 10:40:49;;;;;;;1.05;0.70;;;11.50;62.70;;;;;;5015513;28;20508;-80
2021/11/30 10:43:17;;;;;;;0.52;0.43;;;11.50;62.60;;;;;;5031434;28;20160;-81
2021/11/30 10:45:48;;;;;;;2.13;0.50;;;11.50;62.60;;;;;;5030834;28;20030;-80
2021/11/30 10:48:18;;;;;;;1.02;0.52;;;11.50;62.70;;;;;;5032640;28;20041;-82
2021/11/30 10:50:44;;;;;;;1.38;0.40;;;11.50;62.60;;;;;;5002988;28;20111;-82
2021/11/30 10:53:30;;;;;;;1.25;0.35;;;11.50;62.90;;;;;;5015679;28;20560;-81
2021/11/30 10:56:02;;;;;;;0.47;0.47;;;11.40;62.50;;;;;;5016120;28;20037;-81
2021/11/30 10:58:39;;;;;;;0.77;0.57;;;11.40;62.40;;;;;;5029513;28;20073;-81
2021/11/30 11:01:19;;;;;;;1.48;0.40;;;11.40;62.40;;;;;;5040256;28;20049;-81
2021/11/30 11:03:46;;;;;;;0.30;0.30;;;11.30;62.10;;;;;;5011855;28;20041;-81
2021/11/30 11:06:31;;;;;;;1.33;0.40;;;11.30;62.20;;;;;;5036269;28;20400;-80
2021/11/30 11:09:09;;;;;;;1.00;0.30;;;11.30;62.30;;;;;;5050416;28;20484;-82
2021/11/30 11:11:44;;;;;;;2.10;0.45;;;11.30;62.80;;;;;;5042699;28;20034;-81
2021/11/30 11:14:25;;;;;;;0.85;0.40;;;11.30;62.80;;;;;;5015879;28;20429;-81
2021/11/30 11:17:02;;;;;;;1.17;0.50;;;11.30;63.00;;;;;;5027269;28;20045;-80
2021/11/30 11:19:58;;;;;;;0.80;0.40;;;11.20;63.10;;;;;;5035588;28;20037;-81
2021/11/30 11:22:27;;;;;;;0.40;0.40;;;11.20;63.10;;;;;;5011030;28;20045;-81
2021/11/30 11:24:59;;;;;;;0.90;0.43;;;11.20;63.00;;;;;;5015201;28;20535;-81
2021/11/30 11:27:40;;;;;;;0.73;0.50;;;11.20;63.00;;;;;;5025836;28;20030;-82
2021/11/30 11:30:09;;;;;;;1.13;0.40;;;11.20;62.70;;;;;;5034870;28;20511;-80
2021/11/30 11:32:36;;;;;;;1.08;0.30;;;11.20;62.50;;;;;;5052586;28;20096;-81
2021/11/30 11:35:03;;;;;;;0.47;0.30;;;11.10;62.10;;;;;;5023378;28;20053;-80
2021/11/30 11:37:29;;;;;;;0.30;0.20;;;11.10;62.10;;;;;;5040248;28;20030;-81
2021/11/30 11:39:56;;;;;;;0.40;0.30;;;11.10;61.90;;;;;;5020745;28;20463;-81
2021/11/30 11:42:23;;;;;;;0.35;0.30;;;11.10;61.90;;;;;;5038389;28;20033;-81
2021/11/30 11:44:50;;;;;;;0.63;0.15;;;11.10;61.80;;;;;;5020067;28;20478;-81
2021/11/30 11:47:22;;;;;;;1.70;0.40;;;11.10;61.80;;;;;;5037466;28;20488;-83
2021/11/30 11:49:50;;;;;;;0.60;0.20;;;11.10;61.80;;;;;;5038595;28;20408;-90
2021/11/30 11:52:27;;;;;;;0.25;0.20;;;11.00;61.90;;;;;;5039715;28;20033;-90
2021/11/30 11:55:13;;;;;;;0.20;0.20;;;11.00;61.80;;;;;;5052251;28;20039;-89
2021/11/30 11:57:54;;;;;;;1.00;0.30;;;11.00;62.00;;;;;;5038607;28;20439;-91
2021/11/30 12:00:30;;;;;;;0.20;0.20;;;11.00;62.10;;;;;;5037888;28;20063;-89
2021/11/30 12:03:03;;;;;;;0.52;0.38;;;11.00;62.10;;;;;;5039318;28;20507;-91
2021/11/30 12:05:51;;;;;;;0.63;0.20;;;10.90;61.90;;;;;;5038745;28;20120;-91
2021/11/30 12:08:37;;;;;;;0.70;0.20;;;10.90;61.90;;;;;;5038237;28;20042;-88
2021/11/30 12:11:04;;;;;;;;;;;10.90;62.10;;;;;;5037124;28;20449;-91
2021/11/30 12:13:31;;;;;;;0.38;0.20;;;10.90;62.00;;;;;;5039429;28;19912;-89
2021/11/30 12:16:09;;;;;;;0.30;0.20;;;10.90;61.70;;;;;;5052512;28;20029;-81
2021/11/30 12:18:53;;;;;;;0.52;0.20;;;10.90;61.70;;;;;;5020302;28;20450;-81
2021/11/30 12:21:23;;;;;;;0.60;0.30;;;10.80;61.40;;;;;;5021052;28;20034;-86
2021/11/30 12:23:53;;;;;;;0.63;0.40;;;10.80;61.60;;;;;;5051575;28;20041;-82
2021/11/30 12:26:29;;;;;;;5.50;0.20;;;10.80;63.00;;;;;;5036065;28;20029;-84
2021/11/30 12:28:55;;;;;;;;;;;10.90;64.40;;;;;;5038392;28;20060;-82
2021/11/30 12:31:39;;;;;;;3.10;0.63;;;10.90;65.70;;;;;;5042509;28;19936;-80
2021/11/30 12:34:07;;;;;;;2.85;0.35;;;10.90;65.80;;;;;;5059050;28;20039;-82
2021/11/30 12:36:41;;;;;;;2.95;0.60;;;11.00;66.20;;;;;;5059097;28;20040;-81
2021/11/30 12:39:10;;;;;;;1.20;0.20;;;10.90;66.30;;;;;;5057758;28;20029;-81
2021/11/30 12:41:42;;;;;;;1.58;0.20;;;11.00;66.30;;;;;;5057381;28;20455;-81
2021/11/30 12:44:14;;;;;;;0.63;0.20;;;11.00;66.50;;;;;;5056952;28;20180;-83
2021/11/30 12:46:46;;;;;;;4.57;0.25;;;11.00;66.70;;;;;;5037895;28;20040;-82
2021/11/30 12:49:24;;;;;;;1.38;0.15;;;11.00;66.60;;;;;;5056022;28;20040;-82
2021/11/30 12:52:29;;;;;;;3.65;0.30;;;11.10;66.60;;;;;;5056346;28;20032;-82
2021/11/30 12:55:01;;;;;;;0.30;0.20;;;11.10;66.60;;;;;;5055916;28;20032;-82
2021/11/30 12:57:32;;;;;;;0.73;0.40;;;11.20;66.80;;;;;;5055030;28;20029;-81
2021/11/30 13:00:00;;;;;;;0.28;0.25;;;11.10;66.80;;;;;;5057513;28;20072;-82
2021/11/30 13:03:15;;;;;;;0.85;0.40;;;11.10;67.00;;;;;;5055143;28;20067;-79
2021/11/30 13:06:01;;;;;;;0.60;0.40;;;11.20;67.00;;;;;;5051907;28;20126;-87